Scroll down
FLIGHT INFORMATION
Malaysia Airlines

MAS1

At Arrival Gate

EGLL
 KSLC
DATE: 2018-08-26
GATE:  -
GATE DEPARTURE: 04:09
TAKEOFF: 04:20
DATE: 2018-08-26
GATE:  -
LANDING: 13:20
GATE ARRIVAL: 13:33
FLIGHT DATA
Crew: 
Speed: 
942 kph
Altitude: 
35,005 ft
Stage Length: 
7,809.9 km
Block Time: 
9.4 hrs
Flight Time: 
9 hrs
Fuel Used: 
114,758 kg
Cleared Route: 
TRACK DATA
50,000 ft 1,000 kts
AIRCRAFT INFO AND CUMULATIVE STATS
Aircraft Type: 
B744
Registration: 
SELCAL: 
CJDR
MSN/LN: 
27672 / 1091
Operator: 
Total Flights: 
8
Total Block Time: 
46.6 hrs
Total Flight Time: 
44 hrs
Total Fuel Used: 
539,122 kg
DATALINK LOG | Newest first | Current as of: 2023-02-06 03:00:37
LABEL SEQUENCE CONTENT Dn/Up
QD334913:33 33.5▼ Dn
QC200613:20▼ Dn
GA5723ADVANCED GATE ASSIGNMENTS NOT YET AVAILABLE AT THIS AIRPORT▲ Up
GR2040KSLC▼ Dn
QB202904:20▼ Dn
QA090304:09 286.5▼ Dn
2U0901KSLC 260454Z 13009KT 10SM BKN200 24/04 A2987 RMK AO2 SLP059 T02390044▲ Up
2U0901EGLL 260450Z AUTO VRB04KT 9999 NCD 11/09 Q1014 NOSIG▲ Up
2S5349EGLL KSLC▼ Dn
5U0901TAF EGLL 252254Z 2600/2706 25004KT CAVOK BECMG 2608/2611 17012KT 7000 -RA BKN030 TEMPO 2611/2618 3500 RA BKN012 PROB40 TEMPO 2613/2618 19016G28KT +RA BKN008 BECMG 2618/2621 25010KT BKN006 PROB30 TEMPO 2618/2624 3000 -RADZ BECMG 2700/2703 9999 NSW SCT030▲ Up
5U0901KSLC 260243Z 2603/2706 16009KT P6SM BKN180 FM261600 18011KT P6SM SCT200 FM262000 17011G18KT P6SM FEW100 SCT200 FM270400 18014G22KT P6SM SCT100 BKN150▲ Up
5S5335EGLL KSLC▼ Dn


AIRCRAFT HISTORY
FLIGHT DATE FLIGHT NO. ORIGIN DESTINATION CLEARED ROUTE BLOCK TIME FLIGHT TIME FUEL USED PILOT
2018-11-12MAS8686KSEA KSEA 1.6 hrs1.5 hrs35,223 lbJhan Jensen
2018-11-11MAS166RJAA KSEA 9.2 hrs8.9 hrs201,004 lbJhan Jensen
2018-11-03MAS1WSSS RJAA IBIXU IBIVA DONDI DIVSA BTM DOGRA RUVIK HOSBA TOMAN VERIN LUSMO AKMON UDOSI ALDAS AGSAM ANOKI ARESI AKOTA AVMUP ALDIS ABVAR MEVIN MAGMA SADEK KAZIK AMMEK AZAMA TAMAK SHIBK YULIA NIKAI JERID MISAK BUNGU BAFFY CHEVY SYOYU ANGEL BINKS NR21C AF010 AF011 AF012 WEBBS NRE13 AF001 AF002 AF003 LAKES6.7 hrs6.5 hrs219,002 lbJhan Jensen
2018-10-27MAS172WMKK WSSS 0.9 hrs0.7 hrs21,258 lbJhan Jensen
2018-09-29MAS101PHNL WMKK 11.7 hrs11.4 hrs309,607 lbJhan Jensen
2018-09-03MAS100KSLC PHNL 5.9 hrs5.7 hrs131,351 lbJhan Jensen
2018-08-26MAS1EGLL KSLC 9.4 hrs9 hrs252,998 lbJhan Jensen
2018-08-25MAS999EGBP EGLL 1.1 hrs0.4 hrs18,117 lbJhan Jensen